Henderson, NC (27536)

6:08 PM EST on November 27, 2014 (GMT -0500)
Gillburg | Change Station
CLOSE
Current Station
Personal Weather Station
Location: Henderson, NC
Elevation: 434 ft
Nearby Weather Stations

Elev 434 ft 36.26 °N, 78.37 °W | Updated 9 seconds ago

Clear
Clear
38.5 °F
Feels Like 36 °F
N
3.5
Wind Variable Wind from NW
Gusts 3.5 mph

Today
High -- | Low -- °F
--% Chance of Precip.
Yesterday
High -- | Low -- °F
Precip. -- in
7:02 AM 4:59 PM
Waxing Crescent, 33% visible
Pressure 30.14 in
Visibility 10.0 miles
Clouds Clear
Windchill 36 °F
Dew Point 34 °F
Humidity 85%
Rainfall 0.09 in
Snow Depth Not available.
UV 0 out of 12
Pollen .10 out of 12
Air Quality Not available.
Flu Activity Not available.
METAR KHNZ 272255Z AUTO 31006KT 10SM CLR 05/M01 A3014 RMK AO2 P0001 T00451008

More Conditions Fewer Conditions

Pressure 30.14 in
Visibility 10.0 miles
Clouds Clear
Windchill 36 °F
Dew Point 34 °F
Humidity 85%
Rainfall 0.09 in
Snow Depth Not available.
UV 0 out of 12
Pollen .10 out of 12
Air Quality Not available.
Flu Activity Not available.
METAR KHNZ 272255Z AUTO 31006KT 10SM CLR 05/M01 A3014 RMK AO2 P0001 T00451008

More Conditions Fewer Conditions

10-Day Weather Forecast

Almanac

Astronomy

Nov. 27, 2014 Rise Set
Actual Time
Civil Twilight
Nautical Twilight
Astronomical Twilight
Moon
Length of Visible Light
Length of Day
Tomorrow will be .
, % of the Moon is Illuminated

Today's Extremes

State Highs State Lows

Community

WunderPhotos

Upload Photos

1,774,134 photos uploaded!

WunderBlogs® & News

Nearby

Air Quality

  Air Quality AQ Index Pollutant
Not available.

Snow Depth

Station Depth Elevation

Earthquake Activity

City Distance Mag. Time & Date
Minimum magnitude displayed is 2.5.

Coastal Water Temperatures

Place Temperature

Nearby Weather Stations